sensor_id;sensor_type;location;lat;lon;timestamp;temperature;humidity
46416;DHT22;32620;51.704;7.822;2023-05-10T00:01:29;13.90;99.90
46416;DHT22;32620;51.704;7.822;2023-05-10T00:03:55;13.90;99.90
46416;DHT22;32620;51.704;7.822;2023-05-10T00:06:20;13.90;99.90
46416;DHT22;32620;51.704;7.822;2023-05-10T00:08:46;13.90;99.90
46416;DHT22;32620;51.704;7.822;2023-05-10T00:11:11;13.80;99.90
46416;DHT22;32620;51.704;7.822;2023-05-10T00:13:37;13.80;99.90
46416;DHT22;32620;51.704;7.822;2023-05-10T00:16:02;13.80;99.90
46416;DHT22;32620;51.704;7.822;2023-05-10T00:18:28;13.80;99.90
46416;DHT22;32620;51.704;7.822;2023-05-10T00:20:54;13.80;99.90
46416;DHT22;32620;51.704;7.822;2023-05-10T00:23:19;13.80;99.90
46416;DHT22;32620;51.704;7.822;2023-05-10T00:25:44;13.80;99.90
46416;DHT22;32620;51.704;7.822;2023-05-10T00:28:10;13.80;99.90
46416;DHT22;32620;51.704;7.822;2023-05-10T00:30:36;13.80;99.90
46416;DHT22;32620;51.704;7.822;2023-05-10T00:33:01;13.70;99.90
46416;DHT22;32620;51.704;7.822;2023-05-10T00:35:27;13.70;99.90
46416;DHT22;32620;51.704;7.822;2023-05-10T00:37:52;13.70;99.90
46416;DHT22;32620;51.704;7.822;2023-05-10T00:40:18;13.60;99.90
46416;DHT22;32620;51.704;7.822;2023-05-10T00:42:43;13.60;99.90
46416;DHT22;32620;51.704;7.822;2023-05-10T00:45:09;13.60;99.90
46416;DHT22;32620;51.704;7.822;2023-05-10T00:47:34;13.60;99.90
46416;DHT22;32620;51.704;7.822;2023-05-10T00:50:00;13.60;99.90
46416;DHT22;32620;51.704;7.822;2023-05-10T00:52:27;13.50;99.90
46416;DHT22;32620;51.704;7.822;2023-05-10T00:54:53;13.60;99.90
46416;DHT22;32620;51.704;7.822;2023-05-10T00:57:19;13.50;99.90
46416;DHT22;32620;51.704;7.822;2023-05-10T00:59:45;13.50;99.90
46416;DHT22;32620;51.704;7.822;2023-05-10T01:02:11;13.50;99.90
46416;DHT22;32620;51.704;7.822;2023-05-10T01:04:38;13.50;99.90
46416;DHT22;32620;51.704;7.822;2023-05-10T01:07:04;13.50;99.90
46416;DHT22;32620;51.704;7.822;2023-05-10T01:09:30;13.50;99.90
46416;DHT22;32620;51.704;7.822;2023-05-10T01:11:56;13.50;99.90
46416;DHT22;32620;51.704;7.822;2023-05-10T01:14:22;13.50;99.90
46416;DHT22;32620;51.704;7.822;2023-05-10T01:16:49;13.50;99.90
46416;DHT22;32620;51.704;7.822;2023-05-10T01:19:19;13.50;99.90
46416;DHT22;32620;51.704;7.822;2023-05-10T01:22:12;13.50;99.90
46416;DHT22;32620;51.704;7.822;2023-05-10T01:28:07;13.50;99.90
46416;DHT22;32620;51.704;7.822;2023-05-10T01:34:06;13.50;99.90
46416;DHT22;32620;51.704;7.822;2023-05-10T01:36:55;13.40;99.90
46416;DHT22;32620;51.704;7.822;2023-05-10T01:42:21;13.50;99.90
46416;DHT22;32620;51.704;7.822;2023-05-10T01:48:05;13.40;99.90
46416;DHT22;32620;51.704;7.822;2023-05-10T01:50:32;13.40;99.90
46416;DHT22;32620;51.704;7.822;2023-05-10T01:53:00;13.40;99.90
46416;DHT22;32620;51.704;7.822;2023-05-10T01:55:30;13.40;99.90
46416;DHT22;32620;51.704;7.822;2023-05-10T01:58:06;13.40;99.90
46416;DHT22;32620;51.704;7.822;2023-05-10T02:00:34;13.30;99.90
46416;DHT22;32620;51.704;7.822;2023-05-10T02:03:04;13.40;99.90
46416;DHT22;32620;51.704;7.822;2023-05-10T02:05:32;13.30;99.90
46416;DHT22;32620;51.704;7.822;2023-05-10T02:07:59;13.30;99.90
46416;DHT22;32620;51.704;7.822;2023-05-10T02:10:27;13.30;99.90
46416;DHT22;32620;51.704;7.822;2023-05-10T02:12:54;13.30;99.90
46416;DHT22;32620;51.704;7.822;2023-05-10T02:15:24;13.30;99.90
46416;DHT22;32620;51.704;7.822;2023-05-10T02:17:53;13.30;99.90
46416;DHT22;32620;51.704;7.822;2023-05-10T02:20:20;13.30;99.90
46416;DHT22;32620;51.704;7.822;2023-05-10T02:22:47;13.30;99.90
46416;DHT22;32620;51.704;7.822;2023-05-10T02:25:14;13.30;99.90
46416;DHT22;32620;51.704;7.822;2023-05-10T02:27:41;13.30;99.90
46416;DHT22;32620;51.704;7.822;2023-05-10T02:30:11;13.30;99.90
46416;DHT22;32620;51.704;7.822;2023-05-10T02:32:38;13.30;99.90
46416;DHT22;32620;51.704;7.822;2023-05-10T02:35:05;13.30;99.90
46416;DHT22;32620;51.704;7.822;2023-05-10T02:37:31;13.20;99.90
46416;DHT22;32620;51.704;7.822;2023-05-10T02:39:58;13.20;99.90
46416;DHT22;32620;51.704;7.822;2023-05-10T02:42:26;13.10;99.90
46416;DHT22;32620;51.704;7.822;2023-05-10T02:44:58;13.10;99.90
46416;DHT22;32620;51.704;7.822;2023-05-10T02:47:24;13.00;99.90
46416;DHT22;32620;51.704;7.822;2023-05-10T02:49:51;13.00;99.90
46416;DHT22;32620;51.704;7.822;2023-05-10T02:52:21;12.90;99.90
46416;DHT22;32620;51.704;7.822;2023-05-10T02:54:50;12.90;99.90
46416;DHT22;32620;51.704;7.822;2023-05-10T02:57:22;12.80;99.90
46416;DHT22;32620;51.704;7.822;2023-05-10T02:59:50;12.80;99.90
46416;DHT22;32620;51.704;7.822;2023-05-10T03:02:16;12.80;99.90
46416;DHT22;32620;51.704;7.822;2023-05-10T03:04:41;12.80;99.90
46416;DHT22;32620;51.704;7.822;2023-05-10T03:07:07;12.80;99.90
46416;DHT22;32620;51.704;7.822;2023-05-10T03:09:33;12.70;99.90
46416;DHT22;32620;51.704;7.822;2023-05-10T03:18:02;12.70;99.90
46416;DHT22;32620;51.704;7.822;2023-05-10T03:20:33;12.60;99.90
46416;DHT22;32620;51.704;7.822;2023-05-10T03:23:03;12.50;99.90
46416;DHT22;32620;51.704;7.822;2023-05-10T03:25:31;12.50;99.90
46416;DHT22;32620;51.704;7.822;2023-05-10T03:27:57;12.80;99.90
46416;DHT22;32620;51.704;7.822;2023-05-10T03:30:24;12.50;99.90
46416;DHT22;32620;51.704;7.822;2023-05-10T03:32:50;12.50;99.90
46416;DHT22;32620;51.704;7.822;2023-05-10T03:35:15;12.50;99.90
46416;DHT22;32620;51.704;7.822;2023-05-10T03:37:41;12.40;99.90
46416;DHT22;32620;51.704;7.822;2023-05-10T03:40:07;12.40;99.90
46416;DHT22;32620;51.704;7.822;2023-05-10T03:42:33;12.40;99.90
46416;DHT22;32620;51.704;7.822;2023-05-10T03:44:58;12.40;99.90
46416;DHT22;32620;51.704;7.822;2023-05-10T03:47:24;12.40;99.90
46416;DHT22;32620;51.704;7.822;2023-05-10T03:49:50;12.40;99.90
46416;DHT22;32620;51.704;7.822;2023-05-10T03:52:15;12.40;99.90
46416;DHT22;32620;51.704;7.822;2023-05-10T03:54:41;12.40;99.90
46416;DHT22;32620;51.704;7.822;2023-05-10T03:57:06;12.50;99.90
46416;DHT22;32620;51.704;7.822;2023-05-10T03:59:32;12.40;99.90
46416;DHT22;32620;51.704;7.822;2023-05-10T04:01:57;12.40;99.90
46416;DHT22;32620;51.704;7.822;2023-05-10T04:04:23;12.40;99.90
46416;DHT22;32620;51.704;7.822;2023-05-10T04:06:49;12.40;99.90
46416;DHT22;32620;51.704;7.822;2023-05-10T04:09:14;12.40;99.90
46416;DHT22;32620;51.704;7.822;2023-05-10T04:11:40;12.40;99.90
46416;DHT22;32620;51.704;7.822;2023-05-10T04:14:05;12.50;99.90
46416;DHT22;32620;51.704;7.822;2023-05-10T04:16:31;12.50;99.90
46416;DHT22;32620;51.704;7.822;2023-05-10T04:18:56;12.50;99.90
46416;DHT22;32620;51.704;7.822;2023-05-10T04:21:22;12.40;99.90
46416;DHT22;32620;51.704;7.822;2023-05-10T04:23:48;12.50;99.90
46416;DHT22;32620;51.704;7.822;2023-05-10T04:26:13;12.50;99.90
46416;DHT22;32620;51.704;7.822;2023-05-10T04:28:39;12.50;99.90
46416;DHT22;32620;51.704;7.822;2023-05-10T04:31:07;12.50;99.90
46416;DHT22;32620;51.704;7.822;2023-05-10T04:33:32;12.50;99.90
46416;DHT22;32620;51.704;7.822;2023-05-10T04:35:58;12.60;99.90
46416;DHT22;32620;51.704;7.822;2023-05-10T04:38:24;12.60;99.90
46416;DHT22;32620;51.704;7.822;2023-05-10T04:40:49;12.50;99.90
46416;DHT22;32620;51.704;7.822;2023-05-10T04:43:15;12.60;99.90
46416;DHT22;32620;51.704;7.822;2023-05-10T04:45:41;12.60;99.90
46416;DHT22;32620;51.704;7.822;2023-05-10T04:48:06;12.60;99.90
46416;DHT22;32620;51.704;7.822;2023-05-10T04:50:32;12.60;99.90
46416;DHT22;32620;51.704;7.822;2023-05-10T04:52:58;12.60;99.90
46416;DHT22;32620;51.704;7.822;2023-05-10T04:55:24;12.60;99.90
46416;DHT22;32620;51.704;7.822;2023-05-10T04:57:50;12.70;99.90
46416;DHT22;32620;51.704;7.822;2023-05-10T05:00:15;12.70;99.90
46416;DHT22;32620;51.704;7.822;2023-05-10T05:02:43;12.70;99.90
46416;DHT22;32620;51.704;7.822;2023-05-10T05:05:12;12.70;99.90
46416;DHT22;32620;51.704;7.822;2023-05-10T05:07:37;12.70;99.90
46416;DHT22;32620;51.704;7.822;2023-05-10T05:10:05;12.70;99.90
46416;DHT22;32620;51.704;7.822;2023-05-10T05:12:31;12.80;99.90
46416;DHT22;32620;51.704;7.822;2023-05-10T05:14:57;12.80;99.90
46416;DHT22;32620;51.704;7.822;2023-05-10T05:17:22;12.80;99.90
46416;DHT22;32620;51.704;7.822;2023-05-10T05:19:48;12.90;99.90
46416;DHT22;32620;51.704;7.822;2023-05-10T05:22:13;13.00;99.90
46416;DHT22;32620;51.704;7.822;2023-05-10T05:24:39;12.90;99.90
46416;DHT22;32620;51.704;7.822;2023-05-10T05:27:04;12.10;99.90
46416;DHT22;32620;51.704;7.822;2023-05-10T05:29:31;12.90;99.90
46416;DHT22;32620;51.704;7.822;2023-05-10T05:31:56;13.00;99.90
46416;DHT22;32620;51.704;7.822;2023-05-10T05:34:22;13.00;99.90
46416;DHT22;32620;51.704;7.822;2023-05-10T05:36:48;12.90;99.90
46416;DHT22;32620;51.704;7.822;2023-05-10T05:39:13;12.90;99.90
46416;DHT22;32620;51.704;7.822;2023-05-10T05:41:39;13.00;99.90
46416;DHT22;32620;51.704;7.822;2023-05-10T05:44:04;13.00;99.90
46416;DHT22;32620;51.704;7.822;2023-05-10T05:46:30;13.10;99.90
46416;DHT22;32620;51.704;7.822;2023-05-10T05:48:56;13.00;99.90
46416;DHT22;32620;51.704;7.822;2023-05-10T05:51:21;13.00;99.90
46416;DHT22;32620;51.704;7.822;2023-05-10T05:53:47;13.10;99.90
46416;DHT22;32620;51.704;7.822;2023-05-10T05:56:12;13.10;99.90
46416;DHT22;32620;51.704;7.822;2023-05-10T05:58:38;13.10;99.90
46416;DHT22;32620;51.704;7.822;2023-05-10T06:01:04;13.20;99.90
46416;DHT22;32620;51.704;7.822;2023-05-10T06:03:29;13.30;99.90
46416;DHT22;32620;51.704;7.822;2023-05-10T06:05:55;13.20;99.90
46416;DHT22;32620;51.704;7.822;2023-05-10T06:08:20;13.20;99.90
46416;DHT22;32620;51.704;7.822;2023-05-10T06:10:46;13.30;99.90
46416;DHT22;32620;51.704;7.822;2023-05-10T06:13:11;13.30;99.90
46416;DHT22;32620;51.704;7.822;2023-05-10T06:15:37;13.40;99.90
46416;DHT22;32620;51.704;7.822;2023-05-10T06:18:03;13.40;99.90
46416;DHT22;32620;51.704;7.822;2023-05-10T06:20:29;13.40;99.90
46416;DHT22;32620;51.704;7.822;2023-05-10T06:22:56;13.40;99.90
46416;DHT22;32620;51.704;7.822;2023-05-10T06:25:22;13.40;99.90
46416;DHT22;32620;51.704;7.822;2023-05-10T06:27:48;13.40;99.90
46416;DHT22;32620;51.704;7.822;2023-05-10T06:30:14;13.40;99.90
46416;DHT22;32620;51.704;7.822;2023-05-10T06:32:40;13.50;99.90
46416;DHT22;32620;51.704;7.822;2023-05-10T06:35:06;13.50;99.90
46416;DHT22;32620;51.704;7.822;2023-05-10T06:37:32;13.40;99.90
46416;DHT22;32620;51.704;7.822;2023-05-10T06:39:57;13.40;99.90
46416;DHT22;32620;51.704;7.822;2023-05-10T06:42:23;13.40;99.90
46416;DHT22;32620;51.704;7.822;2023-05-10T06:44:50;13.40;99.90
46416;DHT22;32620;51.704;7.822;2023-05-10T06:47:16;13.50;99.90
46416;DHT22;32620;51.704;7.822;2023-05-10T06:49:42;13.50;99.90
46416;DHT22;32620;51.704;7.822;2023-05-10T06:52:07;13.40;99.90
46416;DHT22;32620;51.704;7.822;2023-05-10T06:54:33;13.50;99.90
46416;DHT22;32620;51.704;7.822;2023-05-10T06:56:59;13.50;99.90
46416;DHT22;32620;51.704;7.822;2023-05-10T06:59:24;13.60;99.90
46416;DHT22;32620;51.704;7.822;2023-05-10T07:01:50;13.70;99.90
46416;DHT22;32620;51.704;7.822;2023-05-10T07:04:16;13.70;99.90
46416;DHT22;32620;51.704;7.822;2023-05-10T07:06:42;13.70;99.90
46416;DHT22;32620;51.704;7.822;2023-05-10T07:09:08;13.70;99.90
46416;DHT22;32620;51.704;7.822;2023-05-10T07:11:34;13.80;99.90
46416;DHT22;32620;51.704;7.822;2023-05-10T07:13:59;13.90;99.90
46416;DHT22;32620;51.704;7.822;2023-05-10T07:16:25;13.80;99.90
46416;DHT22;32620;51.704;7.822;2023-05-10T07:18:51;13.90;99.90
46416;DHT22;32620;51.704;7.822;2023-05-10T07:21:18;13.80;99.90
46416;DHT22;32620;51.704;7.822;2023-05-10T07:23:43;13.90;99.90
46416;DHT22;32620;51.704;7.822;2023-05-10T07:26:09;13.90;99.90
46416;DHT22;32620;51.704;7.822;2023-05-10T07:28:34;13.90;99.90
46416;DHT22;32620;51.704;7.822;2023-05-10T07:31:02;14.10;99.90
46416;DHT22;32620;51.704;7.822;2023-05-10T07:33:28;14.10;99.90
46416;DHT22;32620;51.704;7.822;2023-05-10T07:35:53;14.20;99.90
46416;DHT22;32620;51.704;7.822;2023-05-10T07:38:19;14.30;99.90
46416;DHT22;32620;51.704;7.822;2023-05-10T07:40:44;14.30;99.90
46416;DHT22;32620;51.704;7.822;2023-05-10T07:43:10;14.30;99.90
46416;DHT22;32620;51.704;7.822;2023-05-10T07:45:35;14.40;99.90
46416;DHT22;32620;51.704;7.822;2023-05-10T07:48:01;14.50;99.90
46416;DHT22;32620;51.704;7.822;2023-05-10T07:50:27;14.60;99.90
46416;DHT22;32620;51.704;7.822;2023-05-10T07:52:52;14.70;99.90
46416;DHT22;32620;51.704;7.822;2023-05-10T07:55:18;15.10;99.90
46416;DHT22;32620;51.704;7.822;2023-05-10T07:57:45;15.60;99.90
46416;DHT22;32620;51.704;7.822;2023-05-10T08:00:12;16.30;99.90
46416;DHT22;32620;51.704;7.822;2023-05-10T08:02:38;16.40;99.90
46416;DHT22;32620;51.704;7.822;2023-05-10T08:05:05;16.30;99.90
46416;DHT22;32620;51.704;7.822;2023-05-10T08:07:31;17.00;99.90
46416;DHT22;32620;51.704;7.822;2023-05-10T08:09:56;16.70;99.90
46416;DHT22;32620;51.704;7.822;2023-05-10T08:12:22;17.10;82.80
46416;DHT22;32620;51.704;7.822;2023-05-10T08:14:47;18.30;36.10
46416;DHT22;32620;51.704;7.822;2023-05-10T08:17:13;18.40;31.90
46416;DHT22;32620;51.704;7.822;2023-05-10T08:19:38;18.50;1.00
46416;DHT22;32620;51.704;7.822;2023-05-10T08:22:04;18.00;14.20
46416;DHT22;32620;51.704;7.822;2023-05-10T08:24:29;17.50;45.30
46416;DHT22;32620;51.704;7.822;2023-05-10T08:26:55;17.10;34.90
46416;DHT22;32620;51.704;7.822;2023-05-10T08:29:21;16.80;64.70
46416;DHT22;32620;51.704;7.822;2023-05-10T08:31:46;16.80;95.00
46416;DHT22;32620;51.704;7.822;2023-05-10T08:34:12;17.20;73.30
46416;DHT22;32620;51.704;7.822;2023-05-10T08:36:37;16.90;47.90
46416;DHT22;32620;51.704;7.822;2023-05-10T08:39:03;16.80;88.00
46416;DHT22;32620;51.704;7.822;2023-05-10T08:41:29;16.70;94.80
46416;DHT22;32620;51.704;7.822;2023-05-10T08:43:59;17.00;45.80
46416;DHT22;32620;51.704;7.822;2023-05-10T08:46:28;17.00;50.90
46416;DHT22;32620;51.704;7.822;2023-05-10T08:48:53;17.10;45.00
46416;DHT22;32620;51.704;7.822;2023-05-10T08:51:23;17.30;81.50
46416;DHT22;32620;51.704;7.822;2023-05-10T08:53:52;17.80;24.10
46416;DHT22;32620;51.704;7.822;2023-05-10T08:56:17;18.80;15.50
46416;DHT22;32620;51.704;7.822;2023-05-10T08:58:43;19.60;1.00
46416;DHT22;32620;51.704;7.822;2023-05-10T09:01:09;19.40;1.00
46416;DHT22;32620;51.704;7.822;2023-05-10T09:03:35;20.10;1.00
46416;DHT22;32620;51.704;7.822;2023-05-10T09:06:03;20.00;1.00
46416;DHT22;32620;51.704;7.822;2023-05-10T09:08:30;19.00;1.00
46416;DHT22;32620;51.704;7.822;2023-05-10T09:10:56;18.20;3.50
46416;DHT22;32620;51.704;7.822;2023-05-10T09:13:23;17.50;37.30
46416;DHT22;32620;51.704;7.822;2023-05-10T09:15:49;17.20;51.20
46416;DHT22;32620;51.704;7.822;2023-05-10T09:18:15;16.70;70.00
46416;DHT22;32620;51.704;7.822;2023-05-10T09:20:41;16.40;94.00
46416;DHT22;32620;51.704;7.822;2023-05-10T09:23:06;17.40;44.40
46416;DHT22;32620;51.704;7.822;2023-05-10T09:25:32;18.60;1.00
46416;DHT22;32620;51.704;7.822;2023-05-10T09:27:59;18.80;1.00
46416;DHT22;32620;51.704;7.822;2023-05-10T09:30:29;19.50;1.00
46416;DHT22;32620;51.704;7.822;2023-05-10T09:32:57;20.30;1.00
46416;DHT22;32620;51.704;7.822;2023-05-10T09:35:24;20.90;99.90
46416;DHT22;32620;51.704;7.822;2023-05-10T09:37:52;20.60;99.90
46416;DHT22;32620;51.704;7.822;2023-05-10T09:40:21;20.10;99.90
46416;DHT22;32620;51.704;7.822;2023-05-10T09:45:33;19.30;99.90
46416;DHT22;32620;51.704;7.822;2023-05-10T09:48:00;18.50;1.00
46416;DHT22;32620;51.704;7.822;2023-05-10T09:50:26;18.40;1.00
46416;DHT22;32620;51.704;7.822;2023-05-10T09:52:54;18.10;1.00
46416;DHT22;32620;51.704;7.822;2023-05-10T09:55:23;17.80;1.00
46416;DHT22;32620;51.704;7.822;2023-05-10T09:57:57;17.40;1.00
46416;DHT22;32620;51.704;7.822;2023-05-10T10:00:23;17.20;1.00
46416;DHT22;32620;51.704;7.822;2023-05-10T10:02:55;17.30;1.00
46416;DHT22;32620;51.704;7.822;2023-05-10T10:05:28;17.50;1.00
46416;DHT22;32620;51.704;7.822;2023-05-10T10:07:54;17.50;1.00
46416;DHT22;32620;51.704;7.822;2023-05-10T10:10:20;17.50;6.70
46416;DHT22;32620;51.704;7.822;2023-05-10T10:12:46;17.60;20.00
46416;DHT22;32620;51.704;7.822;2023-05-10T10:15:12;18.10;33.90
46416;DHT22;32620;51.704;7.822;2023-05-10T10:17:38;18.90;1.00
46416;DHT22;32620;51.704;7.822;2023-05-10T10:20:04;17.90;3.50
46416;DHT22;32620;51.704;7.822;2023-05-10T10:22:30;17.30;52.10
46416;DHT22;32620;51.704;7.822;2023-05-10T10:24:56;17.20;66.60
46416;DHT22;32620;51.704;7.822;2023-05-10T10:30:48;16.80;92.60
46416;DHT22;32620;51.704;7.822;2023-05-10T10:33:48;16.70;68.90
46416;DHT22;32620;51.704;7.822;2023-05-10T10:35:52;16.60;67.70
46416;DHT22;32620;51.704;7.822;2023-05-10T10:38:18;16.90;94.50
46416;DHT22;32620;51.704;7.822;2023-05-10T10:40:44;17.10;52.10
46416;DHT22;32620;51.704;7.822;2023-05-10T10:43:22;17.60;76.30
46416;DHT22;32620;51.704;7.822;2023-05-10T10:46:11;18.60;5.20
46416;DHT22;32620;51.704;7.822;2023-05-10T10:48:38;19.00;1.00
46416;DHT22;32620;51.704;7.822;2023-05-10T10:51:03;18.70;1.00
46416;DHT22;32620;51.704;7.822;2023-05-10T10:53:29;18.70;1.00
46416;DHT22;32620;51.704;7.822;2023-05-10T10:56:12;18.90;1.00
46416;DHT22;32620;51.704;7.822;2023-05-10T10:58:40;19.10;1.00
46416;DHT22;32620;51.704;7.822;2023-05-10T11:01:15;19.70;99.90
46416;DHT22;32620;51.704;7.822;2023-05-10T11:06:31;20.30;1.00
46416;DHT22;32620;51.704;7.822;2023-05-10T11:08:57;20.10;99.90
46416;DHT22;32620;51.704;7.822;2023-05-10T11:11:23;19.70;1.00
46416;DHT22;32620;51.704;7.822;2023-05-10T11:13:50;19.30;1.00
46416;DHT22;32620;51.704;7.822;2023-05-10T11:16:19;19.10;99.90
46416;DHT22;32620;51.704;7.822;2023-05-10T11:19:07;18.80;1.00
46416;DHT22;32620;51.704;7.822;2023-05-10T11:21:33;19.20;1.00
46416;DHT22;32620;51.704;7.822;2023-05-10T11:24:00;19.40;1.00
46416;DHT22;32620;51.704;7.822;2023-05-10T11:26:31;19.50;99.90
46416;DHT22;32620;51.704;7.822;2023-05-10T11:28:57;19.30;99.90
46416;DHT22;32620;51.704;7.822;2023-05-10T11:31:25;18.70;1.00
46416;DHT22;32620;51.704;7.822;2023-05-10T11:33:54;18.60;1.00
46416;DHT22;32620;51.704;7.822;2023-05-10T11:36:26;18.30;1.00
46416;DHT22;32620;51.704;7.822;2023-05-10T11:38:53;18.30;1.00
46416;DHT22;32620;51.704;7.822;2023-05-10T11:41:19;18.30;1.00
46416;DHT22;32620;51.704;7.822;2023-05-10T11:43:50;18.40;1.00
46416;DHT22;32620;51.704;7.822;2023-05-10T11:46:18;18.70;1.00
46416;DHT22;32620;51.704;7.822;2023-05-10T11:48:46;18.30;99.90
46416;DHT22;32620;51.704;7.822;2023-05-10T11:51:12;17.70;1.00
46416;DHT22;32620;51.704;7.822;2023-05-10T11:53:37;17.40;1.00
46416;DHT22;32620;51.704;7.822;2023-05-10T11:56:05;17.20;1.00
46416;DHT22;32620;51.704;7.822;2023-05-10T11:58:31;16.80;1.00
46416;DHT22;32620;51.704;7.822;2023-05-10T12:00:59;16.60;1.00
46416;DHT22;32620;51.704;7.822;2023-05-10T12:03:25;16.20;25.50
46416;DHT22;32620;51.704;7.822;2023-05-10T12:05:50;16.00;73.00
46416;DHT22;32620;51.704;7.822;2023-05-10T12:08:21;15.80;97.10
46416;DHT22;32620;51.704;7.822;2023-05-10T12:10:47;15.70;99.90
46416;DHT22;32620;51.704;7.822;2023-05-10T12:13:14;15.70;99.90
46416;DHT22;32620;51.704;7.822;2023-05-10T12:15:40;15.60;99.90
46416;DHT22;32620;51.704;7.822;2023-05-10T12:18:09;15.70;99.90
46416;DHT22;32620;51.704;7.822;2023-05-10T12:20:36;15.70;99.90
46416;DHT22;32620;51.704;7.822;2023-05-10T12:23:02;15.80;99.90
46416;DHT22;32620;51.704;7.822;2023-05-10T12:25:31;15.90;99.90
46416;DHT22;32620;51.704;7.822;2023-05-10T12:27:58;16.20;99.90
46416;DHT22;32620;51.704;7.822;2023-05-10T12:30:28;16.40;99.90
46416;DHT22;32620;51.704;7.822;2023-05-10T12:32:58;16.70;99.90
46416;DHT22;32620;51.704;7.822;2023-05-10T12:35:24;16.80;99.90
46416;DHT22;32620;51.704;7.822;2023-05-10T12:37:51;16.90;99.90
46416;DHT22;32620;51.704;7.822;2023-05-10T12:40:17;17.00;99.90
46416;DHT22;32620;51.704;7.822;2023-05-10T12:42:42;17.10;99.90
46416;DHT22;32620;51.704;7.822;2023-05-10T12:45:10;17.40;99.90
46416;DHT22;32620;51.704;7.822;2023-05-10T12:47:37;17.80;94.50
46416;DHT22;32620;51.704;7.822;2023-05-10T12:50:04;17.90;98.70
46416;DHT22;32620;51.704;7.822;2023-05-10T12:52:30;18.00;59.30
46416;DHT22;32620;51.704;7.822;2023-05-10T12:54:57;18.00;37.50
46416;DHT22;32620;51.704;7.822;2023-05-10T12:57:23;18.10;23.50
46416;DHT22;32620;51.704;7.822;2023-05-10T12:59:49;18.40;54.60
46416;DHT22;32620;51.704;7.822;2023-05-10T13:02:15;18.30;3.80
46416;DHT22;32620;51.704;7.822;2023-05-10T13:04:43;18.50;22.70
46416;DHT22;32620;51.704;7.822;2023-05-10T13:07:09;18.70;1.30
46416;DHT22;32620;51.704;7.822;2023-05-10T13:09:35;19.10;1.00
46416;DHT22;32620;51.704;7.822;2023-05-10T13:12:01;19.30;1.00
46416;DHT22;32620;51.704;7.822;2023-05-10T13:14:26;19.10;1.00
46416;DHT22;32620;51.704;7.822;2023-05-10T13:16:52;18.80;1.00
46416;DHT22;32620;51.704;7.822;2023-05-10T13:19:18;18.50;1.00
46416;DHT22;32620;51.704;7.822;2023-05-10T13:21:43;18.30;1.00
46416;DHT22;32620;51.704;7.822;2023-05-10T13:24:10;18.10;1.00
46416;DHT22;32620;51.704;7.822;2023-05-10T13:26:36;17.90;1.00
46416;DHT22;32620;51.704;7.822;2023-05-10T13:29:02;17.80;1.00
46416;DHT22;32620;51.704;7.822;2023-05-10T13:31:28;18.00;1.00
46416;DHT22;32620;51.704;7.822;2023-05-10T13:33:54;18.00;1.00
46416;DHT22;32620;51.704;7.822;2023-05-10T13:36:19;18.20;1.00
46416;DHT22;32620;51.704;7.822;2023-05-10T13:38:45;18.60;1.00
46416;DHT22;32620;51.704;7.822;2023-05-10T13:41:10;18.60;1.00
46416;DHT22;32620;51.704;7.822;2023-05-10T13:43:36;18.50;1.00
46416;DHT22;32620;51.704;7.822;2023-05-10T13:46:02;18.30;1.00
46416;DHT22;32620;51.704;7.822;2023-05-10T13:48:28;18.00;1.00
46416;DHT22;32620;51.704;7.822;2023-05-10T13:50:53;18.50;1.00
46416;DHT22;32620;51.704;7.822;2023-05-10T13:53:19;18.60;99.90
46416;DHT22;32620;51.704;7.822;2023-05-10T13:55:44;18.50;99.90
46416;DHT22;32620;51.704;7.822;2023-05-10T13:58:10;18.10;1.00
46416;DHT22;32620;51.704;7.822;2023-05-10T14:00:36;17.90;1.00
46416;DHT22;32620;51.704;7.822;2023-05-10T14:03:01;18.00;1.00
46416;DHT22;32620;51.704;7.822;2023-05-10T14:05:27;18.40;1.00
46416;DHT22;32620;51.704;7.822;2023-05-10T14:07:53;18.50;1.00
46416;DHT22;32620;51.704;7.822;2023-05-10T14:10:19;18.70;99.90
46416;DHT22;32620;51.704;7.822;2023-05-10T14:12:45;18.60;1.00
46416;DHT22;32620;51.704;7.822;2023-05-10T14:15:10;18.80;1.00
46416;DHT22;32620;51.704;7.822;2023-05-10T14:17:37;18.80;99.90
46416;DHT22;32620;51.704;7.822;2023-05-10T14:20:02;18.60;1.00
46416;DHT22;32620;51.704;7.822;2023-05-10T14:22:29;18.50;1.00
46416;DHT22;32620;51.704;7.822;2023-05-10T14:24:54;18.50;1.00
46416;DHT22;32620;51.704;7.822;2023-05-10T14:27:20;18.90;99.90
46416;DHT22;32620;51.704;7.822;2023-05-10T14:29:47;18.80;99.90
46416;DHT22;32620;51.704;7.822;2023-05-10T14:32:12;18.90;99.90
46416;DHT22;32620;51.704;7.822;2023-05-10T14:34:38;19.10;99.90
46416;DHT22;32620;51.704;7.822;2023-05-10T14:37:03;19.30;99.90
46416;DHT22;32620;51.704;7.822;2023-05-10T14:39:30;19.40;99.90
46416;DHT22;32620;51.704;7.822;2023-05-10T14:41:55;19.20;98.20
46416;DHT22;32620;51.704;7.822;2023-05-10T14:44:21;19.10;99.90
46416;DHT22;32620;51.704;7.822;2023-05-10T14:46:47;18.90;99.90
46416;DHT22;32620;51.704;7.822;2023-05-10T14:49:13;18.80;99.90
46416;DHT22;32620;51.704;7.822;2023-05-10T14:51:39;18.90;99.90
46416;DHT22;32620;51.704;7.822;2023-05-10T14:54:05;18.80;99.90
46416;DHT22;32620;51.704;7.822;2023-05-10T14:56:31;18.90;99.90
46416;DHT22;32620;51.704;7.822;2023-05-10T14:58:56;19.30;99.90
46416;DHT22;32620;51.704;7.822;2023-05-10T15:01:22;19.30;99.90
46416;DHT22;32620;51.704;7.822;2023-05-10T15:03:47;19.10;99.90
46416;DHT22;32620;51.704;7.822;2023-05-10T15:06:14;18.90;99.90
46416;DHT22;32620;51.704;7.822;2023-05-10T15:08:41;18.90;99.90
46416;DHT22;32620;51.704;7.822;2023-05-10T15:11:07;18.80;99.90
46416;DHT22;32620;51.704;7.822;2023-05-10T15:13:32;18.70;99.90
46416;DHT22;32620;51.704;7.822;2023-05-10T15:15:58;18.50;99.90
46416;DHT22;32620;51.704;7.822;2023-05-10T15:18:24;18.50;99.90
46416;DHT22;32620;51.704;7.822;2023-05-10T15:20:49;18.60;99.90
46416;DHT22;32620;51.704;7.822;2023-05-10T15:23:15;18.60;99.90
46416;DHT22;32620;51.704;7.822;2023-05-10T15:25:41;18.70;99.90
46416;DHT22;32620;51.704;7.822;2023-05-10T15:28:06;18.50;99.90
46416;DHT22;32620;51.704;7.822;2023-05-10T15:30:32;18.70;99.90
46416;DHT22;32620;51.704;7.822;2023-05-10T15:32:57;18.80;99.90
46416;DHT22;32620;51.704;7.822;2023-05-10T15:35:23;19.00;99.90
46416;DHT22;32620;51.704;7.822;2023-05-10T15:37:49;19.10;99.90
46416;DHT22;32620;51.704;7.822;2023-05-10T15:40:15;19.20;99.90
46416;DHT22;32620;51.704;7.822;2023-05-10T15:42:40;18.90;99.90
46416;DHT22;32620;51.704;7.822;2023-05-10T15:45:06;18.90;99.90
46416;DHT22;32620;51.704;7.822;2023-05-10T15:47:32;18.90;99.90
46416;DHT22;32620;51.704;7.822;2023-05-10T15:49:58;18.70;99.90
46416;DHT22;32620;51.704;7.822;2023-05-10T15:52:24;18.70;99.90
46416;DHT22;32620;51.704;7.822;2023-05-10T15:54:50;18.50;99.90
46416;DHT22;32620;51.704;7.822;2023-05-10T15:57:16;18.50;99.90
46416;DHT22;32620;51.704;7.822;2023-05-10T15:59:41;18.20;99.90